Time;durP1;ratioP1;P1;durP2;ratioP2;P2;SDS_P1;SDS_P2;PMS_P1;PMS_P2;Temp;Humidity;BMP_temperature;BMP_pressure;BME280_temperature;BME280_humidity;BME280_pressure;Samples;Min_cycle;Max_cycle;Signal;HPM_P1;HPM_P2
2023/04/08 00:00:47;;;;;;;9.80;8.77;;;11.40;79.50;;;;;;5091453;28;20665;-61
2023/04/08 00:03:14;;;;;;;11.23;8.07;;;11.40;79.40;;;;;;5091777;28;20299;-62
2023/04/08 00:05:41;;;;;;;11.53;9.20;;;11.30;79.20;;;;;;5086564;28;20302;-62
2023/04/08 00:08:08;;;;;;;14.37;8.20;;;11.40;79.00;;;;;;5088654;28;20288;-62
2023/04/08 00:10:35;;;;;;;10.03;8.70;;;11.30;79.00;;;;;;5089851;28;20208;-62
2023/04/08 00:13:02;;;;;;;9.80;8.80;;;11.30;78.90;;;;;;5087566;28;20225;-62
2023/04/08 00:15:29;;;;;;;10.73;8.83;;;11.30;78.90;;;;;;5089858;28;20189;-62
2023/04/08 00:17:56;;;;;;;13.27;8.83;;;11.20;78.90;;;;;;5090113;28;20201;-62
2023/04/08 00:20:24;;;;;;;11.33;8.90;;;11.20;78.90;;;;;;5087715;28;20258;-62
2023/04/08 00:22:51;;;;;;;12.00;9.00;;;11.20;78.70;;;;;;5090889;28;20369;-62
2023/04/08 00:25:18;;;;;;;11.43;9.33;;;11.20;78.70;;;;;;5088064;28;20202;-62
2023/04/08 00:27:45;;;;;;;12.17;9.63;;;11.10;78.60;;;;;;5090657;28;20257;-62
2023/04/08 00:30:12;;;;;;;13.40;9.57;;;11.20;78.80;;;;;;5092177;28;20230;-62
2023/04/08 00:32:39;;;;;;;14.33;10.43;;;11.10;78.90;;;;;;5087128;28;20296;-62
2023/04/08 00:35:06;;;;;;;12.53;9.87;;;11.10;79.00;;;;;;5094807;28;20216;-62
2023/04/08 00:37:33;;;;;;;16.93;9.67;;;11.10;79.10;;;;;;5091357;28;20239;-62
2023/04/08 00:40:01;;;;;;;14.60;9.93;;;11.10;79.10;;;;;;5095362;28;20197;-62
2023/04/08 00:42:29;;;;;;;11.30;9.70;;;11.10;79.20;;;;;;5094655;28;20193;-62
2023/04/08 00:44:57;;;;;;;19.60;10.27;;;11.10;79.40;;;;;;5094078;28;20281;-62
2023/04/08 00:47:24;;;;;;;11.20;9.77;;;11.00;79.50;;;;;;5087789;28;20303;-62
2023/04/08 00:49:52;;;;;;;13.47;9.77;;;11.00;79.60;;;;;;5087532;28;20205;-62
2023/04/08 00:52:19;;;;;;;13.17;10.00;;;11.00;79.80;;;;;;5093452;28;20244;-62
2023/04/08 00:54:46;;;;;;;13.10;10.83;;;10.90;80.00;;;;;;5095004;28;20609;-62
2023/04/08 00:57:13;;;;;;;12.37;9.93;;;10.90;80.00;;;;;;5093704;28;20584;-62
2023/04/08 00:59:41;;;;;;;17.63;10.87;;;10.90;80.00;;;;;;5092601;28;20218;-62
2023/04/08 01:02:35;;;;;;;15.37;10.10;;;10.90;80.30;;;;;;5093773;28;20203;-62
2023/04/08 01:05:07;;;;;;;11.40;10.00;;;10.90;80.40;;;;;;5094063;28;20647;-62
2023/04/08 01:07:36;;;;;;;11.90;10.37;;;10.90;80.50;;;;;;5095912;28;20636;-62
2023/04/08 01:10:12;;;;;;;14.57;9.77;;;10.90;80.70;;;;;;5095376;28;20242;-62
2023/04/08 01:12:45;;;;;;;14.93;10.23;;;10.80;80.70;;;;;;5094065;28;20196;-62
2023/04/08 01:15:12;;;;;;;11.50;10.30;;;10.80;80.90;;;;;;5093852;28;20279;-62
2023/04/08 01:17:40;;;;;;;15.17;10.23;;;10.80;81.00;;;;;;5090936;28;21690;-62
2023/04/08 01:20:09;;;;;;;13.37;10.90;;;10.80;81.20;;;;;;5094222;28;20204;-62
2023/04/08 01:22:54;;;;;;;12.93;11.27;;;10.70;81.10;;;;;;5106639;28;20295;-62
2023/04/08 01:25:28;;;;;;;12.63;10.43;;;10.70;81.20;;;;;;5091137;28;20195;-62
2023/04/08 01:27:57;;;;;;;14.30;10.23;;;10.70;81.10;;;;;;5093970;28;20557;-63
2023/04/08 01:30:26;;;;;;;14.00;10.73;;;10.70;81.20;;;;;;5097523;28;20205;-62
2023/04/08 01:32:54;;;;;;;14.90;10.83;;;10.70;81.20;;;;;;5093883;28;20284;-62
2023/04/08 01:35:22;;;;;;;15.30;11.33;;;10.70;81.30;;;;;;5087296;28;20212;-62
2023/04/08 01:37:51;;;;;;;15.20;10.83;;;10.70;81.50;;;;;;5094614;28;20334;-62
2023/04/08 01:40:19;;;;;;;12.47;10.67;;;10.70;81.70;;;;;;5092433;28;20208;-62
2023/04/08 01:42:51;;;;;;;13.27;11.50;;;10.70;81.60;;;;;;5093590;28;20208;-62
2023/04/08 01:45:19;;;;;;;12.80;11.50;;;10.60;81.70;;;;;;5091317;28;20207;-62
2023/04/08 01:47:48;;;;;;;16.43;11.77;;;10.60;81.90;;;;;;5090488;28;20585;-62
2023/04/08 01:50:16;;;;;;;14.70;11.57;;;10.60;82.00;;;;;;5093025;28;20223;-62
2023/04/08 01:52:45;;;;;;;13.93;11.10;;;10.60;82.10;;;;;;5091653;28;20229;-62
2023/04/08 01:55:13;;;;;;;15.17;11.60;;;10.60;82.20;;;;;;5081454;28;20229;-62
2023/04/08 01:57:43;;;;;;;15.13;11.73;;;10.60;82.30;;;;;;5093867;28;20301;-62
2023/04/08 02:00:12;;;;;;;16.70;11.90;;;10.60;82.60;;;;;;5086778;28;20685;-63
2023/04/08 02:02:51;;;;;;;19.03;11.97;;;10.60;82.50;;;;;;5090630;28;20199;-62
2023/04/08 02:05:19;;;;;;;14.43;12.20;;;10.60;82.40;;;;;;5091924;28;20208;-62
2023/04/08 02:07:49;;;;;;;14.33;11.90;;;10.50;82.50;;;;;;5092697;28;20196;-62
2023/04/08 02:10:15;;;;;;;17.70;12.50;;;10.50;82.70;;;;;;5092694;28;20292;-62
2023/04/08 02:12:44;;;;;;;13.87;11.57;;;10.60;82.70;;;;;;5093189;28;20206;-62
2023/04/08 02:15:12;;;;;;;18.20;12.87;;;10.60;82.60;;;;;;5093700;28;20263;-62
2023/04/08 02:17:43;;;;;;;17.03;12.50;;;10.50;82.70;;;;;;5092799;28;20224;-61
2023/04/08 02:20:18;;;;;;;16.57;11.50;;;10.50;82.60;;;;;;5092424;28;20216;-62
2023/04/08 02:23:15;;;;;;;16.93;12.80;;;10.50;82.60;;;;;;5091192;28;20494;-62
2023/04/08 02:25:45;;;;;;;25.13;13.43;;;10.50;82.80;;;;;;5091898;28;20189;-63
2023/04/08 02:28:14;;;;;;;17.27;12.90;;;10.40;82.70;;;;;;5089129;28;20282;-62
2023/04/08 02:30:43;;;;;;;14.23;12.73;;;10.40;83.10;;;;;;5091470;28;20193;-62
2023/04/08 02:33:12;;;;;;;15.10;11.93;;;10.40;83.30;;;;;;5092608;28;20519;-62
2023/04/08 02:35:40;;;;;;;16.47;12.27;;;10.40;83.40;;;;;;5089781;28;20208;-62
2023/04/08 02:38:09;;;;;;;14.03;11.77;;;10.30;83.50;;;;;;5092494;28;20673;-62
2023/04/08 02:40:36;;;;;;;15.97;12.53;;;10.30;83.50;;;;;;5082385;28;20233;-62
2023/04/08 02:43:03;;;;;;;17.17;12.20;;;10.30;83.50;;;;;;5091520;28;20245;-62
2023/04/08 02:45:34;;;;;;;15.73;12.10;;;10.20;83.20;;;;;;5091029;28;20270;-62
2023/04/08 02:48:01;;;;;;;14.87;12.97;;;10.10;83.30;;;;;;5092803;28;20208;-62
2023/04/08 02:50:28;;;;;;;15.70;13.17;;;10.10;83.70;;;;;;5091001;28;20196;-62
2023/04/08 02:52:56;;;;;;;14.97;11.77;;;10.00;83.80;;;;;;5083722;28;20685;-62
2023/04/08 02:55:23;;;;;;;19.83;12.90;;;10.00;84.00;;;;;;5090102;28;20643;-62
2023/04/08 02:57:50;;;;;;;14.00;12.50;;;10.00;84.10;;;;;;5090061;28;20231;-62
2023/04/08 03:00:17;;;;;;;15.97;12.20;;;9.90;84.20;;;;;;5089760;28;20561;-63
2023/04/08 03:02:44;;;;;;;15.97;13.17;;;9.90;84.30;;;;;;5091855;28;20205;-62
2023/04/08 03:05:11;;;;;;;18.20;12.83;;;9.90;84.50;;;;;;5089579;28;20522;-62
2023/04/08 03:07:38;;;;;;;17.53;13.10;;;9.90;84.50;;;;;;5091707;28;20212;-62
2023/04/08 03:10:06;;;;;;;15.60;12.47;;;9.80;84.50;;;;;;5092657;28;20660;-62
2023/04/08 03:12:33;;;;;;;20.47;13.00;;;9.80;84.30;;;;;;5092669;28;20203;-61
2023/04/08 03:15:00;;;;;;;17.03;12.93;;;9.70;84.20;;;;;;5090286;28;20233;-62
2023/04/08 03:17:27;;;;;;;16.83;13.63;;;9.60;84.30;;;;;;5092242;28;20254;-62
2023/04/08 03:19:54;;;;;;;14.70;13.07;;;9.60;84.40;;;;;;5091578;28;20517;-62
2023/04/08 03:22:23;;;;;;;16.03;12.53;;;9.50;84.60;;;;;;5082346;28;20208;-62
2023/04/08 03:24:50;;;;;;;15.97;13.67;;;9.50;85.40;;;;;;5092526;28;20678;-62
2023/04/08 03:27:17;;;;;;;15.67;11.70;;;9.50;85.00;;;;;;5091383;28;20195;-62
2023/04/08 03:29:45;;;;;;;19.00;14.17;;;9.40;85.10;;;;;;5092221;28;20197;-62
2023/04/08 03:32:12;;;;;;;18.63;13.33;;;9.40;85.10;;;;;;5106020;28;20527;-62
2023/04/08 03:34:39;;;;;;;18.40;14.43;;;9.30;85.30;;;;;;5091749;28;20210;-62
2023/04/08 03:37:06;;;;;;;15.83;12.97;;;9.20;85.60;;;;;;5092327;28;20240;-62
2023/04/08 03:39:33;;;;;;;20.70;14.37;;;9.20;86.00;;;;;;5087158;28;20215;-62
2023/04/08 03:42:01;;;;;;;23.23;14.23;;;9.20;86.30;;;;;;5091289;28;20198;-62
2023/04/08 03:44:29;;;;;;;16.27;13.20;;;9.20;86.60;;;;;;5089771;28;20199;-62
2023/04/08 03:46:56;;;;;;;18.40;13.67;;;9.20;86.60;;;;;;5087915;28;20205;-62
2023/04/08 03:49:23;;;;;;;24.00;14.10;;;9.10;86.70;;;;;;5084484;28;20220;-62
2023/04/08 03:51:50;;;;;;;15.97;12.47;;;9.10;87.00;;;;;;5088227;28;20275;-62
2023/04/08 03:54:17;;;;;;;21.17;13.33;;;9.10;87.10;;;;;;5089003;28;20710;-62
2023/04/08 03:56:44;;;;;;;17.00;12.73;;;9.10;87.20;;;;;;5090687;28;20215;-62
2023/04/08 03:59:11;;;;;;;17.43;13.40;;;9.00;87.10;;;;;;5090883;28;20338;-62
2023/04/08 04:01:38;;;;;;;16.00;14.00;;;9.00;87.10;;;;;;5091165;28;20195;-62
2023/04/08 04:04:07;;;;;;;16.83;13.30;;;9.00;87.20;;;;;;5092739;28;20260;-61
2023/04/08 04:06:35;;;;;;;16.27;13.40;;;9.00;87.10;;;;;;5089982;28;20280;-64
2023/04/08 04:09:02;;;;;;;17.33;13.70;;;8.90;86.80;;;;;;5091799;28;20504;-62
2023/04/08 04:11:29;;;;;;;17.67;13.70;;;8.80;86.60;;;;;;5087705;28;20200;-62
2023/04/08 04:13:56;;;;;;;18.43;13.80;;;8.80;86.80;;;;;;5090953;28;20660;-62
2023/04/08 04:16:23;;;;;;;19.67;15.33;;;8.80;86.90;;;;;;5091380;28;20688;-61
2023/04/08 04:18:52;;;;;;;18.77;13.60;;;8.70;86.90;;;;;;5091309;28;20233;-62
2023/04/08 04:21:19;;;;;;;21.20;14.20;;;8.70;86.90;;;;;;5090705;28;20190;-62
2023/04/08 04:23:46;;;;;;;20.37;14.30;;;8.60;86.70;;;;;;5091015;28;20198;-62
2023/04/08 04:26:14;;;;;;;16.83;14.87;;;8.50;86.40;;;;;;5090878;28;20191;-61
2023/04/08 04:28:41;;;;;;;21.47;14.27;;;8.50;86.30;;;;;;5090438;28;20612;-62
2023/04/08 04:31:16;;;;;;;21.07;15.10;;;8.30;86.20;;;;;;5093059;28;20207;-61
2023/04/08 04:33:43;;;;;;;20.30;15.90;;;8.30;86.70;;;;;;5093271;28;20222;-61
2023/04/08 04:36:11;;;;;;;24.77;16.63;;;8.20;86.80;;;;;;5092578;28;20229;-61
2023/04/08 04:38:37;;;;;;;21.60;15.67;;;8.10;86.90;;;;;;5087686;28;20260;-62
2023/04/08 04:41:05;;;;;;;22.53;15.73;;;8.10;87.10;;;;;;5090229;28;20202;-62
2023/04/08 04:43:32;;;;;;;22.97;15.47;;;8.10;87.50;;;;;;5091827;28;20203;-62
2023/04/08 04:45:59;;;;;;;20.93;14.93;;;8.00;87.70;;;;;;5092547;28;20193;-61
2023/04/08 04:48:26;;;;;;;19.87;14.90;;;8.00;87.60;;;;;;5089402;28;20195;-62
2023/04/08 04:50:57;;;;;;;28.33;17.20;;;8.00;87.50;;;;;;5090820;28;20210;-63
2023/04/08 04:53:25;;;;;;;18.43;14.13;;;8.00;87.30;;;;;;5084761;28;20221;-62
2023/04/08 04:55:52;;;;;;;24.27;16.77;;;7.90;87.30;;;;;;5090355;28;20267;-62
2023/04/08 04:58:19;;;;;;;22.17;17.13;;;7.90;87.40;;;;;;5087010;28;20230;-61
2023/04/08 05:00:46;;;;;;;26.80;17.43;;;7.90;87.50;;;;;;5091327;28;20209;-62
2023/04/08 05:03:13;;;;;;;22.73;16.03;;;7.90;87.80;;;;;;5092636;28;20494;-62
2023/04/08 05:05:40;;;;;;;26.77;18.27;;;7.90;88.00;;;;;;5092698;28;20327;-61
2023/04/08 05:08:07;;;;;;;24.50;17.17;;;7.90;88.20;;;;;;5092372;28;20206;-62
2023/04/08 05:10:34;;;;;;;25.33;17.23;;;8.00;88.20;;;;;;5087501;28;20241;-62
2023/04/08 05:13:01;;;;;;;25.00;17.77;;;7.90;88.20;;;;;;5090733;28;20209;-63
2023/04/08 05:15:28;;;;;;;27.90;18.40;;;8.00;88.40;;;;;;5090066;28;20218;-62
2023/04/08 05:17:55;;;;;;;26.60;19.00;;;8.00;88.40;;;;;;5089649;28;20222;-61
2023/04/08 05:20:22;;;;;;;24.90;18.47;;;8.10;88.40;;;;;;5094475;28;20536;-62
2023/04/08 05:22:49;;;;;;;24.53;18.40;;;8.30;88.60;;;;;;5095724;28;20284;-62
2023/04/08 05:25:16;;;;;;;25.70;19.07;;;8.50;88.50;;;;;;5093921;28;20212;-61
2023/04/08 05:27:43;;;;;;;27.13;19.33;;;8.80;87.60;;;;;;5095288;28;20954;-61
2023/04/08 05:30:10;;;;;;;27.37;18.80;;;9.00;86.30;;;;;;5094729;28;20543;-61
2023/04/08 05:32:38;;;;;;;30.67;21.63;;;9.10;85.60;;;;;;5094626;28;20273;-62
2023/04/08 05:35:06;;;;;;;29.70;21.17;;;9.10;85.40;;;;;;5093261;28;20546;-62
2023/04/08 05:37:33;;;;;;;29.17;21.63;;;9.10;85.80;;;;;;5092967;28;20225;-62
2023/04/08 05:39:59;;;;;;;30.33;20.87;;;9.00;86.30;;;;;;5093616;28;20283;-62
2023/04/08 05:42:27;;;;;;;31.77;21.83;;;9.00;86.90;;;;;;5090757;28;20191;-61
2023/04/08 05:44:54;;;;;;;29.20;21.17;;;9.00;87.40;;;;;;5105146;28;20284;-62
2023/04/08 05:47:21;;;;;;;32.73;22.23;;;9.10;87.80;;;;;;5091289;28;20260;-62
2023/04/08 05:49:48;;;;;;;35.27;24.30;;;9.20;88.10;;;;;;5094547;28;20201;-62
2023/04/08 05:52:17;;;;;;;29.83;23.17;;;9.20;88.20;;;;;;5088836;28;20260;-62
2023/04/08 05:54:44;;;;;;;34.73;22.80;;;9.30;88.40;;;;;;5092857;28;20228;-62
2023/04/08 05:57:11;;;;;;;33.57;23.73;;;9.30;88.80;;;;;;5088421;28;20239;-62
2023/04/08 05:59:38;;;;;;;36.50;24.37;;;9.40;88.90;;;;;;5089642;28;20203;-62
2023/04/08 06:02:06;;;;;;;34.13;26.10;;;9.40;88.90;;;;;;5093808;28;20283;-62
2023/04/08 06:04:33;;;;;;;29.37;22.93;;;9.50;89.40;;;;;;5091457;28;20231;-62
2023/04/08 06:07:01;;;;;;;33.73;23.90;;;9.70;89.40;;;;;;5093199;28;20238;-62
2023/04/08 06:09:28;;;;;;;30.23;23.63;;;9.90;88.80;;;;;;5089224;28;20214;-62
2023/04/08 06:11:56;;;;;;;33.13;24.23;;;10.10;88.50;;;;;;5092193;28;20220;-62
2023/04/08 06:14:23;;;;;;;32.20;22.57;;;10.40;88.30;;;;;;5091287;28;20646;-61
2023/04/08 06:16:52;;;;;;;33.63;24.40;;;10.60;86.70;;;;;;5091778;28;20523;-62
2023/04/08 06:19:19;;;;;;;31.90;23.03;;;10.80;85.90;;;;;;5088917;28;20302;-62
2023/04/08 06:21:46;;;;;;;27.57;21.07;;;10.90;85.30;;;;;;5091829;28;20212;-62
2023/04/08 06:24:13;;;;;;;30.03;22.43;;;11.00;84.80;;;;;;5093654;28;20560;-62
2023/04/08 06:26:40;;;;;;;32.43;21.80;;;11.10;84.20;;;;;;5090695;28;20207;-62
2023/04/08 06:29:07;;;;;;;28.93;22.00;;;11.10;84.10;;;;;;5090035;28;20850;-62
2023/04/08 06:31:34;;;;;;;28.67;21.40;;;11.10;84.30;;;;;;5093835;28;20216;-62
2023/04/08 06:34:01;;;;;;;26.03;20.33;;;11.10;84.70;;;;;;5092152;28;20196;-62
2023/04/08 06:36:28;;;;;;;28.83;21.73;;;11.10;85.00;;;;;;5093115;28;20192;-62
2023/04/08 06:38:55;;;;;;;28.43;21.27;;;11.20;84.90;;;;;;5089673;28;20315;-62
2023/04/08 06:41:22;;;;;;;26.80;21.10;;;11.20;85.60;;;;;;5088925;28;20252;-61
2023/04/08 06:43:49;;;;;;;26.43;20.27;;;11.30;85.70;;;;;;5092237;28;20211;-61
2023/04/08 06:46:16;;;;;;;27.07;20.40;;;11.40;86.00;;;;;;5089416;28;20290;-62
2023/04/08 06:48:43;;;;;;;30.77;20.50;;;11.50;85.70;;;;;;5093050;28;20201;-62
2023/04/08 06:51:10;;;;;;;27.73;19.77;;;11.60;85.30;;;;;;5089140;28;20687;-63
2023/04/08 06:53:37;;;;;;;28.60;19.93;;;11.80;84.80;;;;;;5091852;28;20244;-62
2023/04/08 06:56:05;;;;;;;23.57;18.70;;;11.90;84.50;;;;;;5088608;28;20210;-62
2023/04/08 06:58:32;;;;;;;27.30;18.37;;;12.10;84.20;;;;;;5092353;28;20237;-62
2023/04/08 07:01:01;;;;;;;20.43;17.47;;;12.20;84.00;;;;;;5089575;28;20598;-62
2023/04/08 07:03:28;;;;;;;22.97;17.97;;;12.30;84.00;;;;;;5090437;28;20189;-62
2023/04/08 07:05:56;;;;;;;22.70;17.47;;;12.50;83.50;;;;;;5088618;28;20510;-62
2023/04/08 07:08:22;;;;;;;21.77;17.87;;;12.60;83.20;;;;;;5085006;28;20230;-62
2023/04/08 07:10:51;;;;;;;20.63;17.93;;;12.60;83.00;;;;;;5092895;28;20240;-62
2023/04/08 07:13:18;;;;;;;21.77;17.57;;;12.70;83.00;;;;;;5090254;28;20220;-62
2023/04/08 07:15:45;;;;;;;21.23;18.63;;;12.80;83.10;;;;;;5090920;28;20566;-62
2023/04/08 07:18:12;;;;;;;22.63;18.93;;;12.90;82.80;;;;;;5091168;28;20217;-63
2023/04/08 07:20:40;;;;;;;24.83;19.03;;;13.00;82.40;;;;;;5088957;28;20205;-62
2023/04/08 07:23:07;;;;;;;19.43;15.93;;;13.10;81.50;;;;;;5090260;28;20250;-61
2023/04/08 07:25:35;;;;;;;24.70;18.53;;;13.20;81.90;;;;;;5091807;28;20201;-62
2023/04/08 07:28:02;;;;;;;25.70;19.07;;;13.30;81.70;;;;;;5094683;28;20552;-62
2023/04/08 07:30:29;;;;;;;24.03;18.00;;;13.40;82.00;;;;;;5092350;28;20203;-62
2023/04/08 07:32:57;;;;;;;21.33;16.90;;;13.50;81.90;;;;;;5090797;28;20216;-62
2023/04/08 07:35:27;;;;;;;20.13;17.03;;;13.60;81.40;;;;;;5091975;28;20283;-62
2023/04/08 07:37:54;;;;;;;21.93;17.37;;;13.60;81.10;;;;;;5090910;28;20225;-62
2023/04/08 07:40:21;;;;;;;21.10;17.87;;;13.70;80.80;;;;;;5090656;28;20590;-62
2023/04/08 07:42:48;;;;;;;22.90;17.73;;;13.90;81.00;;;;;;5092557;28;20216;-62
2023/04/08 07:45:15;;;;;;;20.80;17.33;;;14.10;80.60;;;;;;5089881;28;20239;-62
2023/04/08 07:47:43;;;;;;;20.67;18.47;;;14.20;80.20;;;;;;5094122;28;20296;-62
2023/04/08 07:50:10;;;;;;;21.07;17.33;;;14.40;79.80;;;;;;5090117;28;20211;-62
2023/04/08 07:52:37;;;;;;;20.77;17.97;;;14.60;79.60;;;;;;5092833;28;20237;-62
2023/04/08 07:55:05;;;;;;;19.33;17.33;;;14.70;78.10;;;;;;5090000;28;20284;-62
2023/04/08 07:57:32;;;;;;;28.33;17.03;;;14.80;77.20;;;;;;5088750;28;20198;-62
2023/04/08 07:59:59;;;;;;;25.40;18.03;;;14.80;77.50;;;;;;5086339;28;20211;-62
2023/04/08 08:02:26;;;;;;;25.53;18.47;;;15.00;77.70;;;;;;5092098;28;20256;-62
2023/04/08 08:04:53;;;;;;;21.93;17.47;;;15.10;76.90;;;;;;5093103;28;20204;-62
2023/04/08 08:07:20;;;;;;;21.73;17.83;;;15.20;75.80;;;;;;5091612;28;20236;-62
2023/04/08 08:09:47;;;;;;;21.40;17.50;;;15.20;76.40;;;;;;5093810;28;20204;-62
2023/04/08 08:12:14;;;;;;;25.27;18.10;;;15.30;76.50;;;;;;5092680;28;20212;-63
2023/04/08 08:14:41;;;;;;;21.73;17.33;;;15.50;76.60;;;;;;5091121;28;20225;-62
2023/04/08 08:17:08;;;;;;;20.77;15.70;;;15.60;75.60;;;;;;5084454;28;21028;-62
2023/04/08 08:19:35;;;;;;;20.37;17.07;;;15.80;74.70;;;;;;5092042;28;20241;-62
2023/04/08 08:22:02;;;;;;;19.20;17.23;;;15.90;74.40;;;;;;5088498;28;20189;-62
2023/04/08 08:24:29;;;;;;;18.10;14.83;;;16.00;74.10;;;;;;5090644;28;20190;-62
2023/04/08 08:26:57;;;;;;;20.30;16.13;;;16.10;73.40;;;;;;5092837;28;20199;-64
2023/04/08 08:29:24;;;;;;;18.23;16.27;;;16.20;72.90;;;;;;5091523;28;20610;-62
2023/04/08 08:31:51;;;;;;;18.17;15.60;;;16.40;72.20;;;;;;5091377;28;20280;-62
2023/04/08 08:34:18;;;;;;;16.43;14.10;;;16.50;72.20;;;;;;5093456;28;20600;-62
2023/04/08 08:36:45;;;;;;;18.73;15.17;;;16.50;71.70;;;;;;5090458;28;20216;-62
2023/04/08 08:39:12;;;;;;;20.87;15.63;;;16.60;70.80;;;;;;5093334;28;20228;-62
2023/04/08 08:41:40;;;;;;;19.93;15.50;;;16.70;70.40;;;;;;5089394;28;20266;-62
2023/04/08 08:44:07;;;;;;;18.40;15.83;;;16.70;69.10;;;;;;5090501;28;20282;-62
2023/04/08 08:46:34;;;;;;;20.33;15.70;;;16.70;69.60;;;;;;5090076;28;20225;-62
2023/04/08 08:49:01;;;;;;;16.77;14.97;;;16.70;69.40;;;;;;5089478;28;20212;-62
2023/04/08 08:51:31;;;;;;;16.43;14.70;;;16.70;69.30;;;;;;5089509;28;20243;-62
2023/04/08 08:54:01;;;;;;;19.00;14.80;;;16.80;69.60;;;;;;5094430;28;20294;-62
2023/04/08 08:56:29;;;;;;;14.90;11.13;;;17.00;69.80;;;;;;5097595;28;20191;-62
2023/04/08 08:58:56;;;;;;;13.07;10.47;;;17.20;68.40;;;;;;5092063;28;20233;-62
2023/04/08 09:01:42;;;;;;;15.63;14.00;;;17.20;65.80;;;;;;5094499;28;20203;-63
2023/04/08 09:04:18;;;;;;;19.67;14.97;;;17.40;66.60;;;;;;5093352;28;20491;-62
2023/04/08 09:06:48;;;;;;;10.13;9.13;;;17.60;66.70;;;;;;5092026;28;20268;-62
2023/04/08 09:09:16;;;;;;;14.00;10.63;;;17.70;65.70;;;;;;5090151;28;20208;-62
2023/04/08 09:11:45;;;;;;;13.53;11.47;;;17.60;65.10;;;;;;5092633;28;20244;-62
2023/04/08 09:14:22;;;;;;;13.83;12.23;;;17.50;65.60;;;;;;5095640;28;20263;-62
2023/04/08 09:16:51;;;;;;;15.67;13.37;;;17.20;64.50;;;;;;5093705;28;20257;-62
2023/04/08 09:19:18;;;;;;;17.03;13.10;;;17.00;65.50;;;;;;5096520;28;20209;-62
2023/04/08 09:22:02;;;;;;;16.33;12.20;;;16.90;66.60;;;;;;5091548;28;20194;-63
2023/04/08 09:24:30;;;;;;;15.30;12.43;;;16.90;67.00;;;;;;5094538;28;20206;-62
2023/04/08 09:26:57;;;;;;;15.70;12.50;;;17.10;66.60;;;;;;5091497;28;20660;-63
2023/04/08 09:29:26;;;;;;;16.10;13.67;;;17.20;65.60;;;;;;5095153;28;20211;-63
2023/04/08 09:32:00;;;;;;;15.20;12.50;;;17.40;64.80;;;;;;5092741;28;20207;-62
2023/04/08 09:34:28;;;;;;;11.03;8.23;;;17.50;64.20;;;;;;5094163;28;20219;-62
2023/04/08 09:36:55;;;;;;;12.33;10.37;;;17.60;63.10;;;;;;5095224;28;20273;-63
2023/04/08 09:39:22;;;;;;;14.63;10.90;;;17.70;62.90;;;;;;5093566;28;20220;-62
2023/04/08 09:41:51;;;;;;;15.73;11.20;;;17.80;63.30;;;;;;5093095;28;20192;-62
2023/04/08 09:44:19;;;;;;;13.47;10.60;;;17.90;63.00;;;;;;5095601;28;20196;-63
2023/04/08 09:46:51;;;;;;;12.73;10.67;;;18.10;62.30;;;;;;5093719;28;20251;-62
2023/04/08 09:49:30;;;;;;;12.20;9.20;;;18.20;62.90;;;;;;5094222;28;20215;-62
2023/04/08 09:52:23;;;;;;;11.33;10.10;;;18.30;63.80;;;;;;5090464;28;20340;-63
2023/04/08 09:55:05;;;;;;;15.07;10.60;;;18.40;60.30;;;;;;5092956;28;20528;-63
2023/04/08 09:58:00;;;;;;;12.70;10.03;;;18.40;60.20;;;;;;5090023;28;20204;-63
2023/04/08 10:00:33;;;;;;;13.10;9.73;;;18.40;61.30;;;;;;5093233;28;20313;-63
2023/04/08 10:03:29;;;;;;;11.90;9.90;;;18.30;59.80;;;;;;5092554;28;20191;-63
2023/04/08 10:06:00;;;;;;;9.93;8.93;;;18.10;60.60;;;;;;5092141;28;20211;-63
2023/04/08 10:08:27;;;;;;;7.63;6.60;;;18.00;61.70;;;;;;5091847;28;20495;-63
2023/04/08 10:10:55;;;;;;;7.33;6.27;;;18.00;60.80;;;;;;5091227;28;20604;-63
2023/04/08 10:13:23;;;;;;;8.63;6.10;;;18.00;59.70;;;;;;5092640;28;20219;-63
2023/04/08 10:16:10;;;;;;;6.50;5.23;;;18.10;60.30;;;;;;5091429;28;20542;-63
2023/04/08 10:18:38;;;;;;;8.43;6.13;;;18.30;59.60;;;;;;5090410;28;20323;-63
2023/04/08 10:21:30;;;;;;;10.13;7.40;;;18.50;59.60;;;;;;5093147;28;20283;-63
2023/04/08 10:23:59;;;;;;;7.33;6.63;;;18.70;58.30;;;;;;5095327;28;20211;-62
2023/04/08 10:26:50;;;;;;;10.73;6.73;;;18.70;58.60;;;;;;5089652;28;20572;-63
2023/04/08 10:29:17;;;;;;;8.03;7.17;;;18.70;56.10;;;;;;5094457;28;20284;-63
2023/04/08 10:31:45;;;;;;;10.03;7.27;;;18.80;57.10;;;;;;5093510;28;20200;-63
2023/04/08 10:34:21;;;;;;;8.17;7.13;;;18.90;59.00;;;;;;5093878;28;20204;-63
2023/04/08 10:36:48;;;;;;;7.83;6.97;;;18.80;56.20;;;;;;5089695;28;20220;-63
2023/04/08 10:39:16;;;;;;;13.37;8.93;;;18.90;59.50;;;;;;5093985;28;20677;-63
2023/04/08 10:41:44;;;;;;;9.47;7.17;;;18.90;60.10;;;;;;5091226;28;20207;-63
2023/04/08 10:44:19;;;;;;;12.77;9.03;;;19.00;58.40;;;;;;5092945;28;20239;-62
2023/04/08 10:46:47;;;;;;;12.40;9.50;;;19.20;57.10;;;;;;5093186;28;20200;-63
2023/04/08 10:49:16;;;;;;;10.47;9.40;;;19.30;56.70;;;;;;5091751;28;20236;-63
2023/04/08 10:51:43;;;;;;;11.77;8.57;;;19.20;55.90;;;;;;5093213;28;20689;-63
2023/04/08 10:54:16;;;;;;;9.40;8.50;;;18.90;55.70;;;;;;5093730;28;20549;-63
2023/04/08 10:56:51;;;;;;;8.23;7.40;;;18.60;56.20;;;;;;5088559;28;20253;-63
2023/04/08 10:59:31;;;;;;;9.27;7.30;;;18.50;55.30;;;;;;5092458;28;20258;-62
2023/04/08 11:02:00;;;;;;;8.50;6.30;;;18.60;55.60;;;;;;5104575;28;20639;-63
2023/04/08 11:04:27;;;;;;;9.73;6.60;;;18.70;54.90;;;;;;5090507;28;20196;-63
2023/04/08 11:06:54;;;;;;;10.03;7.60;;;18.80;54.20;;;;;;5090439;28;20622;-62
2023/04/08 11:09:21;;;;;;;10.53;8.93;;;18.90;53.90;;;;;;5094004;28;20557;-63
2023/04/08 11:11:49;;;;;;;12.40;9.00;;;19.00;54.70;;;;;;5092376;28;20205;-63
2023/04/08 11:14:20;;;;;;;8.47;7.57;;;19.20;56.90;;;;;;5087058;28;20228;-63
2023/04/08 11:16:47;;;;;;;10.93;8.10;;;19.40;56.40;;;;;;5093166;28;20203;-63
2023/04/08 11:19:14;;;;;;;11.87;7.80;;;19.60;55.70;;;;;;5087942;28;20275;-63
2023/04/08 11:21:41;;;;;;;6.90;6.10;;;19.70;53.20;;;;;;5092886;28;20220;-62
2023/04/08 11:24:10;;;;;;;7.50;6.17;;;19.60;53.30;;;;;;5089410;28;20280;-63
2023/04/08 11:26:38;;;;;;;7.07;6.37;;;19.60;52.80;;;;;;5089995;28;20228;-63
2023/04/08 11:29:11;;;;;;;7.17;6.13;;;19.60;51.90;;;;;;5093472;28;20653;-63
2023/04/08 11:31:39;;;;;;;7.93;5.90;;;19.70;52.40;;;;;;5090454;28;20231;-63
2023/04/08 11:34:07;;;;;;;7.23;5.97;;;19.80;52.80;;;;;;5092292;28;20200;-64
2023/04/08 11:36:35;;;;;;;7.67;6.07;;;20.00;52.90;;;;;;5092320;28;20208;-63
2023/04/08 11:39:10;;;;;;;7.93;6.53;;;20.30;52.90;;;;;;5092692;28;20282;-63
2023/04/08 11:41:39;;;;;;;7.90;7.07;;;20.50;52.30;;;;;;5091870;28;20226;-63
2023/04/08 11:44:06;;;;;;;9.67;7.23;;;20.70;51.00;;;;;;5090772;28;20209;-63
2023/04/08 11:46:34;;;;;;;8.83;7.13;;;20.70;51.60;;;;;;5092706;28;20576;-63
2023/04/08 11:49:05;;;;;;;7.20;6.07;;;20.70;52.00;;;;;;5091453;28;20614;-63
2023/04/08 11:51:33;;;;;;;6.97;6.23;;;20.80;52.80;;;;;;5090847;28;20617;-63
2023/04/08 11:54:05;;;;;;;7.43;6.53;;;20.90;51.70;;;;;;5092755;28;20193;-64
2023/04/08 11:56:44;;;;;;;6.53;6.00;;;20.80;50.90;;;;;;5093974;28;20538;-63
2023/04/08 11:59:11;;;;;;;5.40;4.90;;;20.60;50.80;;;;;;5091047;28;20244;-63
2023/04/08 12:01:38;;;;;;;3.60;3.30;;;20.50;50.70;;;;;;5092194;28;20211;-63
2023/04/08 12:04:08;;;;;;;7.80;3.60;;;20.50;49.60;;;;;;5092142;28;20205;-63
2023/04/08 12:06:36;;;;;;;5.23;3.87;;;20.70;48.40;;;;;;5089736;28;20596;-64
2023/04/08 12:09:03;;;;;;;7.03;4.23;;;20.90;47.60;;;;;;5090850;28;20688;-63
2023/04/08 12:11:30;;;;;;;7.00;4.80;;;21.10;47.30;;;;;;5087047;28;20201;-63
2023/04/08 12:13:57;;;;;;;6.27;4.77;;;21.30;47.70;;;;;;5090963;28;20197;-63
2023/04/08 12:16:25;;;;;;;5.73;4.70;;;21.40;48.10;;;;;;5093311;28;20192;-63
2023/04/08 12:18:52;;;;;;;5.33;4.77;;;21.40;46.50;;;;;;5089880;28;20323;-63
2023/04/08 12:21:19;;;;;;;6.63;4.63;;;21.30;46.10;;;;;;5092083;28;20197;-63
2023/04/08 12:23:46;;;;;;;4.73;4.07;;;21.20;47.80;;;;;;5087845;28;20197;-63
2023/04/08 12:26:13;;;;;;;5.90;4.27;;;21.10;47.70;;;;;;5091002;28;20619;-63
2023/04/08 12:28:40;;;;;;;3.53;3.23;;;20.90;46.70;;;;;;5090476;28;20233;-63
2023/04/08 12:31:07;;;;;;;3.70;3.37;;;20.50;46.20;;;;;;5077596;28;20771;-63
2023/04/08 12:33:34;;;;;;;3.73;3.40;;;20.00;46.60;;;;;;5090001;28;20208;-63
2023/04/08 12:36:01;;;;;;;4.60;3.40;;;19.60;46.80;;;;;;5089821;28;20212;-63
2023/04/08 12:38:29;;;;;;;3.87;3.50;;;19.40;48.80;;;;;;5090788;28;20514;-63
2023/04/08 12:40:56;;;;;;;6.23;4.40;;;19.30;48.80;;;;;;5091209;28;20244;-62